首页
METAR-TAF:

METAR-TAF

机场 :

成都双流国际机场

成都, 中华人民共和国

纬度: 30-40N, 经度: 104-01E, 海拔: 508米

当前天气观测

该预报发布于21分钟前的05:00 UTC
风速4节,风向,在北转西北东北之间变化
温度 15°C
湿度 82%
气压 1016 hPa
能見度: 4000
散云层高于1200英尺
多云层高于3000英尺
小雨, 轻雾

METAR: ZUUU 140500Z 36002MPS 330V040 4000 -RA BR SCT012 BKN030 15/12 Q1016 NOSIG

时间: 13:21 (05:21 UTC)

预报

该预报发布于9小时和17分钟前的20:04 UTC
预报有效从14日的 00点(UTC)到 14日的 24点(UTC)
风速6节,风向北转东北
能見度: 3500
散云层高于4000英尺
轻雾
短暂存在
从 14日的 12点(UTC)到 14日的 18点(UTC)
小雨

TAF: ZUUU 132004Z 1400/1424 02003MPS 3500 BR SCT040 TX16/1407Z TN09/1423Z TEMPO 1412/1418 -RA

超过4000个机场的气象观测和天气预报(METAR&TAF报告)。

可查询的气象台以黄色和红色小点在地图上表示。

将鼠标移到小点上方,可查看气象台名称。

然后点击查看天气观测和预报。

如需切换地图:点击带黑十字的绿色按钮放大地图;点击带横线的绿色按钮缩小地图;或者点击绿色箭头查看邻近地区的地图。


METAR-TAF: